Troy, TX (76579)

6:34 PM CST on February 13, 2016 (GMT -0600)
Pandemonium Farms | | Change Station
CLOSE
Current Station
Personal Weather Station
Location: Moody, TX
Elevation: 837 ft
Nearby Weather Stations

Elev 837 ft 31.29 °N, 97.31 °W | Updated 1 minute ago

Clear
Clear
65.3 °F
Feels Like 65.3 °F
N
0.0
Wind Variable Wind from SSE

Today
High -- | Low -- °F
--% Chance of Precip.
Yesterday
High -- | Low -- °F
Precip. -- in
Pressure 30.21 in
Visibility 10.0 miles
Clouds Clear
Dew Point 46 °F
Humidity 50%
Rainfall 0.00 in
Snow Depth Not available.
7:12 AM 6:14 PM
Waxing Crescent, 35% visible
METAR KTPL 132351Z AUTO 15015KT 10SM CLR 20/12 A3016 RMK AO2 SLP229 T02000117 10228 20183 56018 $
Pressure 30.21 in
Visibility 10.0 miles
Clouds Clear
Dew Point 46 °F
Humidity 50%
Rainfall 0.00 in
Snow Depth Not available.
7:12 AM 6:14 PM
Waxing Crescent, 35% visible
METAR KTPL 132351Z AUTO 15015KT 10SM CLR 20/12 A3016 RMK AO2 SLP229 T02000117 10228 20183 56018 $

10-Day Weather Forecast

Almanac

Astronomy

Feb. 13, 2016 Rise Set
Actual Time
Civil Twilight
Nautical Twilight
Astronomical Twilight
Moon
Length of Visible Light
Length of Day
Tomorrow will be .
, % of the Moon is Illuminated

Today's Extremes

State Highs State Lows

Community

WunderPhotos

Upload Photos

1,892,712 photos uploaded!

WunderBlog® & News

Nearby

Air Quality

  Air Quality AQ Index Pollutant
Not available.

Snow Depth

Station Depth Elevation

Earthquake Activity

City Distance Mag. Time & Date
Minimum magnitude displayed is 2.5.

Coastal Water Temperatures

Place Temperature

Stations

Nearby Weather Stations

Station Location Temp. Windchill Dew Point Humidity Wind Precip. Elev Updated Type
                   

Watches & Warnings

There are currently no watches in effect.